createdAt,value
2019-01-16T00:00:23.817Z,5.10
2019-01-16T00:03:02.225Z,2.93
2019-01-16T00:05:48.688Z,4.07
2019-01-16T00:08:35.314Z,3.03
2019-01-16T00:11:25.933Z,4.57
2019-01-16T00:13:58.885Z,4.07
2019-01-16T00:16:31.605Z,5.80
2019-01-16T00:19:07.046Z,5.87
2019-01-16T00:22:02.564Z,7.50
2019-01-16T00:24:52.010Z,3.50
2019-01-16T00:30:27.457Z,5.37
2019-01-16T00:33:06.121Z,3.00
2019-01-16T00:38:28.106Z,3.43
2019-01-16T00:41:18.577Z,3.60
2019-01-16T00:43:51.073Z,2.10
2019-01-16T00:46:21.347Z,2.33
2019-01-16T00:48:54.256Z,5.37
2019-01-16T00:51:36.244Z,3.63
2019-01-16T00:54:24.011Z,4.23
2019-01-16T00:57:09.013Z,2.77
2019-01-16T00:59:57.161Z,2.77
2019-01-16T01:02:43.200Z,3.70
2019-01-16T01:05:19.171Z,5.23
2019-01-16T01:07:59.469Z,4.73
2019-01-16T01:10:41.185Z,2.73
2019-01-16T01:13:18.645Z,2.77
2019-01-16T01:15:57.702Z,3.00
2019-01-16T01:18:40.883Z,3.90
2019-01-16T01:21:29.196Z,5.20
2019-01-16T01:24:17.489Z,5.30
2019-01-16T01:26:59.562Z,6.90
2019-01-16T01:29:34.418Z,7.00
2019-01-16T01:32:13.556Z,5.83
2019-01-16T01:35:02.159Z,7.67
2019-01-16T01:37:47.105Z,4.20
2019-01-16T01:40:33.182Z,7.70
2019-01-16T01:43:12.138Z,13.27
2019-01-16T01:45:53.931Z,6.87
2019-01-16T01:48:40.191Z,12.27
2019-01-16T01:51:13.536Z,11.53
2019-01-16T01:53:55.398Z,8.80
2019-01-16T01:56:37.109Z,11.27
2019-01-16T01:59:09.780Z,8.33
2019-01-16T02:01:42.518Z,12.60
2019-01-16T02:04:29.368Z,7.67
2019-01-16T02:07:15.878Z,7.13
2019-01-16T02:09:46.152Z,11.37
2019-01-16T02:12:25.219Z,8.77
2019-01-16T02:15:13.182Z,11.80
2019-01-16T02:17:43.257Z,8.57
2019-01-16T02:20:17.040Z,7.73
2019-01-16T02:22:47.057Z,7.43
2019-01-16T02:25:26.127Z,7.80
2019-01-16T02:28:16.898Z,10.47
2019-01-16T02:30:58.861Z,10.57
2019-01-16T02:33:35.233Z,8.00
2019-01-16T02:36:08.317Z,7.43
2019-01-16T02:38:53.623Z,10.33
2019-01-16T02:41:38.409Z,6.83
2019-01-16T02:44:35.857Z,7.77
2019-01-16T02:47:08.722Z,10.83
2019-01-16T02:49:38.736Z,7.33
2019-01-16T02:52:24.848Z,8.10
2019-01-16T02:55:06.978Z,8.87
2019-01-16T02:57:45.903Z,7.97
2019-01-16T03:00:18.774Z,7.37
2019-01-16T03:03:06.625Z,11.00
2019-01-16T03:05:45.021Z,8.87
2019-01-16T03:08:20.398Z,9.50
2019-01-16T03:11:02.721Z,8.90
2019-01-16T03:13:32.753Z,7.10
2019-01-16T03:16:02.837Z,12.27
2019-01-16T03:18:32.885Z,8.60
2019-01-16T03:21:02.915Z,14.67
2019-01-16T03:23:49.191Z,10.33
2019-01-16T03:26:19.244Z,7.93
2019-01-16T03:29:07.303Z,8.03
2019-01-16T03:31:49.185Z,11.73
2019-01-16T03:34:28.101Z,8.37
2019-01-16T03:36:58.137Z,10.40
2019-01-16T03:39:37.153Z,10.23
2019-01-16T03:42:10.031Z,9.90
2019-01-16T03:44:43.045Z,10.17
2019-01-16T03:47:31.449Z,7.73
2019-01-16T03:50:12.658Z,9.17
2019-01-16T03:52:42.686Z,7.77
2019-01-16T03:55:13.033Z,7.67
2019-01-16T03:57:59.418Z,8.97
2019-01-16T04:00:44.742Z,4.00
2019-01-16T04:03:18.781Z,4.97
2019-01-16T04:05:54.531Z,5.93
2019-01-16T04:08:36.958Z,7.53
2019-01-16T04:11:25.042Z,5.63
2019-01-16T04:13:57.861Z,9.80
2019-01-16T04:16:42.781Z,8.67
2019-01-16T04:19:22.071Z,7.33
2019-01-16T04:21:52.685Z,10.53
2019-01-16T04:24:35.012Z,7.60
2019-01-16T04:27:13.918Z,5.17
2019-01-16T04:29:49.651Z,11.00
2019-01-16T04:32:28.743Z,10.30
2019-01-16T04:35:15.937Z,4.80
2019-01-16T04:37:45.971Z,6.40
2019-01-16T04:40:34.405Z,9.63
2019-01-16T04:43:07.444Z,9.57
2019-01-16T04:45:46.742Z,9.90
2019-01-16T04:48:33.145Z,7.90
2019-01-16T04:51:06.194Z,10.33
2019-01-16T04:53:36.219Z,9.50
2019-01-16T04:56:12.074Z,8.63
2019-01-16T04:58:42.113Z,13.23
2019-01-16T05:01:23.833Z,9.43
2019-01-16T05:03:59.671Z,9.53
2019-01-16T05:06:38.736Z,6.87
2019-01-16T05:09:27.907Z,6.50
2019-01-16T05:12:14.194Z,8.70
2019-01-16T05:14:50.202Z,8.93
2019-01-16T05:17:20.228Z,6.63
2019-01-16T05:19:55.737Z,9.73
2019-01-16T05:22:31.278Z,8.60
2019-01-16T05:25:03.984Z,5.77
2019-01-16T05:27:50.459Z,10.63
2019-01-16T05:30:39.906Z,5.10
2019-01-16T05:33:09.918Z,6.13
2019-01-16T05:35:47.132Z,3.97
2019-01-16T05:38:25.817Z,4.77
2019-01-16T05:41:11.104Z,8.30
2019-01-16T05:43:57.533Z,6.53
2019-01-16T05:46:27.561Z,4.20
2019-01-16T05:49:00.140Z,8.77
2019-01-16T05:51:30.164Z,7.67
2019-01-16T05:54:16.811Z,6.13
2019-01-16T05:56:49.543Z,7.37
2019-01-16T05:59:19.886Z,5.30
2019-01-16T06:02:06.251Z,6.83
2019-01-16T06:04:48.441Z,11.53
2019-01-16T06:07:39.297Z,8.87
2019-01-16T06:10:29.483Z,6.07
2019-01-16T06:13:02.202Z,10.20
2019-01-16T06:15:32.249Z,6.93
2019-01-16T06:18:05.183Z,8.17
2019-01-16T06:20:42.268Z,6.87
2019-01-16T06:23:15.473Z,6.27
2019-01-16T06:25:45.500Z,4.23
2019-01-16T06:28:37.601Z,8.30
2019-01-16T06:31:16.540Z,6.80
2019-01-16T06:33:46.557Z,6.93
2019-01-16T06:36:32.737Z,7.07
2019-01-16T06:39:02.756Z,7.10
2019-01-16T06:41:32.773Z,6.23
2019-01-16T06:44:03.039Z,5.43
2019-01-16T06:46:36.019Z,5.93
2019-01-16T06:49:09.831Z,4.67
2019-01-16T06:51:49.165Z,8.03
2019-01-16T06:54:27.957Z,9.03
2019-01-16T06:57:14.562Z,5.93
2019-01-16T06:59:45.549Z,4.90
2019-01-16T07:02:30.388Z,6.77
2019-01-16T07:05:19.654Z,8.40
2019-01-16T07:08:07.693Z,5.27
2019-01-16T07:10:37.713Z,9.50
2019-01-16T07:13:27.913Z,8.67
2019-01-16T07:16:09.734Z,10.50
2019-01-16T07:18:40.007Z,8.90
2019-01-16T07:21:31.101Z,11.70
2019-01-16T07:24:09.906Z,8.40
2019-01-16T07:26:45.669Z,9.00
2019-01-16T07:29:18.199Z,9.33
2019-01-16T07:31:54.059Z,9.87
2019-01-16T07:34:42.861Z,10.10
2019-01-16T07:37:29.309Z,5.53
2019-01-16T07:39:59.345Z,8.90
2019-01-16T07:42:47.294Z,9.97
2019-01-16T07:45:23.154Z,8.90
2019-01-16T07:47:56.122Z,6.27
2019-01-16T07:50:32.177Z,7.47
2019-01-16T07:53:07.948Z,10.37
2019-01-16T07:55:43.033Z,10.03
2019-01-16T07:58:15.797Z,9.93
2019-01-16T08:00:48.527Z,7.70
2019-01-16T08:03:35.109Z,7.03
2019-01-16T08:06:11.309Z,5.80
2019-01-16T08:08:50.436Z,7.57
2019-01-16T08:11:32.774Z,7.03
2019-01-16T08:14:02.790Z,7.70
2019-01-16T08:16:35.352Z,6.20
2019-01-16T08:19:23.701Z,9.03
2019-01-16T08:22:08.588Z,6.93
2019-01-16T08:24:54.834Z,10.30
2019-01-16T08:27:39.881Z,12.27
2019-01-16T08:30:18.316Z,8.23
2019-01-16T08:33:04.522Z,10.13
2019-01-16T08:35:40.989Z,7.87
2019-01-16T08:38:20.380Z,7.17
2019-01-16T08:40:58.878Z,8.13
2019-01-16T08:43:34.373Z,6.67
2019-01-16T08:46:07.030Z,6.73
2019-01-16T08:49:05.447Z,10.93
2019-01-16T08:51:51.677Z,8.97
2019-01-16T08:54:41.976Z,10.07
2019-01-16T08:57:14.931Z,5.03
2019-01-16T08:59:47.658Z,5.37
2019-01-16T09:02:20.393Z,9.20
2019-01-16T09:04:53.132Z,6.90
2019-01-16T09:07:38.349Z,7.27
2019-01-16T09:10:27.796Z,7.03
2019-01-16T09:13:00.760Z,10.23
2019-01-16T09:15:47.121Z,7.07
2019-01-16T09:18:20.270Z,6.97
2019-01-16T09:20:59.520Z,9.37
2019-01-16T09:23:35.517Z,6.90
2019-01-16T09:26:15.009Z,8.60
2019-01-16T09:29:04.011Z,7.07
2019-01-16T09:31:42.792Z,7.87
2019-01-16T09:34:12.831Z,5.00
2019-01-16T09:36:54.926Z,9.43
2019-01-16T09:39:24.945Z,4.90
2019-01-16T09:41:57.981Z,5.77
2019-01-16T09:44:36.652Z,7.00
2019-01-16T09:47:23.926Z,12.53
2019-01-16T09:50:15.076Z,8.53
2019-01-16T09:52:45.105Z,7.77
2019-01-16T09:55:24.213Z,6.77
2019-01-16T09:57:57.249Z,9.27
2019-01-16T10:00:30.378Z,8.13
2019-01-16T10:03:19.450Z,8.13
2019-01-16T10:05:52.416Z,5.50
2019-01-16T10:08:40.357Z,3.53
2019-01-16T10:11:13.184Z,8.73
2019-01-16T10:13:52.180Z,3.87
2019-01-16T10:16:27.440Z,7.07
2019-01-16T10:18:57.459Z,7.43
2019-01-16T10:21:33.414Z,6.30
2019-01-16T10:24:15.484Z,6.20
2019-01-16T10:27:09.537Z,8.50
2019-01-16T10:29:42.550Z,5.70
2019-01-16T10:32:17.167Z,5.47
2019-01-16T10:35:04.022Z,4.57
2019-01-16T10:37:54.397Z,7.67
2019-01-16T10:40:27.132Z,5.33
2019-01-16T10:43:12.161Z,4.27
2019-01-16T10:45:42.205Z,5.50
2019-01-16T10:48:12.705Z,7.07
2019-01-16T10:50:54.784Z,5.57
2019-01-16T10:53:41.095Z,5.17
2019-01-16T10:56:17.361Z,7.53
2019-01-16T10:59:08.661Z,7.20
2019-01-16T11:01:42.093Z,5.47
2019-01-16T11:04:33.267Z,5.43
2019-01-16T11:07:09.345Z,3.83
2019-01-16T11:09:39.385Z,6.90
2019-01-16T11:12:09.403Z,5.90
2019-01-16T11:14:55.652Z,7.07
2019-01-16T11:17:25.680Z,6.90
2019-01-16T11:19:55.689Z,8.33
2019-01-16T11:22:30.058Z,5.60
2019-01-16T11:25:13.994Z,7.87
2019-01-16T11:28:04.453Z,3.73
2019-01-16T11:30:51.617Z,6.77
2019-01-16T11:33:21.705Z,6.97
2019-01-16T11:36:10.428Z,10.60
2019-01-16T11:38:40.449Z,5.00
2019-01-16T11:41:22.425Z,9.67
2019-01-16T11:43:58.510Z,6.80
2019-01-16T11:46:32.772Z,9.20
2019-01-16T11:49:17.789Z,6.37
2019-01-16T11:51:53.712Z,9.13
2019-01-16T11:54:23.729Z,4.03
2019-01-16T11:56:56.769Z,5.70
2019-01-16T11:59:32.201Z,5.10
2019-01-16T12:02:04.947Z,8.40
2019-01-16T12:04:43.888Z,5.03
2019-01-16T12:07:19.502Z,7.77
2019-01-16T12:09:55.297Z,7.97
2019-01-16T12:12:43.952Z,7.30
2019-01-16T12:15:14.059Z,6.93
2019-01-16T12:18:09.340Z,5.53
2019-01-16T12:20:40.936Z,11.40
2019-01-16T12:23:19.871Z,5.50
2019-01-16T12:25:49.887Z,10.60
2019-01-16T12:28:25.985Z,4.07
2019-01-16T12:31:12.989Z,6.90
2019-01-16T12:33:59.858Z,7.33
2019-01-16T12:36:47.745Z,3.73
2019-01-16T12:39:36.089Z,5.40
2019-01-16T12:42:19.849Z,6.33
2019-01-16T12:44:58.797Z,8.47
2019-01-16T12:47:28.819Z,6.93
2019-01-16T12:50:05.214Z,3.73
2019-01-16T12:52:55.162Z,3.23
2019-01-16T12:55:28.186Z,4.97
2019-01-16T12:58:13.509Z,5.70
2019-01-16T13:00:57.950Z,6.17
2019-01-16T13:03:40.080Z,5.60
2019-01-16T13:06:29.717Z,5.37
2019-01-16T13:09:02.939Z,4.87
2019-01-16T13:11:39.126Z,8.10
2019-01-16T13:14:18.276Z,11.03
2019-01-16T13:16:54.512Z,5.37
2019-01-16T13:19:33.554Z,4.60
2019-01-16T13:22:06.708Z,7.13
2019-01-16T13:24:54.725Z,5.73
2019-01-16T13:27:29.885Z,8.40
2019-01-16T13:30:02.806Z,4.93
2019-01-16T13:32:54.004Z,7.13
2019-01-16T13:35:32.701Z,3.70
2019-01-16T13:38:04.236Z,7.47
2019-01-16T13:40:49.281Z,6.23
2019-01-16T13:43:19.320Z,4.20
2019-01-16T13:46:07.461Z,6.70
2019-01-16T13:48:57.064Z,4.43
2019-01-16T13:51:27.140Z,7.13
2019-01-16T13:54:13.608Z,7.83
2019-01-16T13:57:01.901Z,3.77
2019-01-16T13:59:46.780Z,5.77
2019-01-16T14:02:19.648Z,5.00
2019-01-16T14:04:51.457Z,6.07
2019-01-16T14:07:42.677Z,11.70
2019-01-16T14:10:19.218Z,11.23
2019-01-16T14:12:57.834Z,8.27
2019-01-16T14:15:33.480Z,9.07
2019-01-16T14:18:09.961Z,6.63
2019-01-16T14:21:00.688Z,9.13
2019-01-16T14:23:48.614Z,14.10
2019-01-16T14:26:21.894Z,7.70
2019-01-16T14:29:01.421Z,11.03
2019-01-16T14:31:49.468Z,9.03
2019-01-16T14:34:29.329Z,7.77
2019-01-16T14:37:18.664Z,18.73
2019-01-16T14:40:10.206Z,6.20
2019-01-16T14:42:40.261Z,9.17
2019-01-16T14:45:24.832Z,6.23
2019-01-16T14:48:11.865Z,10.47
2019-01-16T14:50:56.532Z,8.93
2019-01-16T14:53:32.368Z,9.40
2019-01-16T14:56:18.983Z,6.67
2019-01-16T14:58:58.414Z,10.37
2019-01-16T15:01:31.689Z,9.80
2019-01-16T15:04:13.830Z,7.73
2019-01-16T15:06:49.917Z,12.77
2019-01-16T15:09:22.754Z,15.80
2019-01-16T15:11:58.298Z,7.73
2019-01-16T15:14:37.043Z,11.23
2019-01-16T15:17:16.693Z,9.73
2019-01-16T15:20:02.721Z,13.10
2019-01-16T15:22:41.391Z,9.43
2019-01-16T15:25:16.054Z,13.37
2019-01-16T15:27:49.652Z,12.10
2019-01-16T15:30:19.827Z,19.27
2019-01-16T15:32:55.513Z,10.20
2019-01-16T15:35:28.540Z,14.13
2019-01-16T15:37:59.877Z,10.90
2019-01-16T15:40:46.387Z,12.03
2019-01-16T15:43:22.401Z,12.40
2019-01-16T15:46:04.714Z,12.00
2019-01-16T15:48:43.797Z,12.63
2019-01-16T15:51:19.786Z,12.13
2019-01-16T15:54:10.061Z,13.63
2019-01-16T15:56:55.513Z,11.03
2019-01-16T15:59:42.276Z,9.37
2019-01-16T16:02:15.433Z,14.17
2019-01-16T16:04:54.224Z,11.30
2019-01-16T16:07:41.744Z,12.27
2019-01-16T16:10:19.946Z,14.53
2019-01-16T16:12:58.923Z,13.20
2019-01-16T16:15:34.821Z,12.67
2019-01-16T16:18:22.866Z,14.73
2019-01-16T16:20:55.768Z,11.27
2019-01-16T16:23:40.165Z,6.93
2019-01-16T16:26:22.293Z,12.87
2019-01-16T16:28:58.262Z,12.17
2019-01-16T16:31:28.288Z,7.63
2019-01-16T16:33:58.318Z,15.93
2019-01-16T16:36:34.107Z,7.23
2019-01-16T16:39:13.573Z,11.90
2019-01-16T16:41:43.599Z,15.90
2019-01-16T16:44:19.552Z,13.17
2019-01-16T16:47:07.937Z,14.50
2019-01-16T16:49:40.625Z,11.63
2019-01-16T16:52:25.780Z,12.17
2019-01-16T16:55:09.622Z,13.27
2019-01-16T16:58:01.792Z,9.27
2019-01-16T17:00:37.657Z,10.10
2019-01-16T17:03:25.751Z,15.30
2019-01-16T17:06:05.172Z,10.70
2019-01-16T17:08:53.151Z,16.50
2019-01-16T17:11:42.376Z,9.70
2019-01-16T17:14:18.501Z,14.13
2019-01-16T17:16:54.689Z,10.10
2019-01-16T17:19:44.313Z,10.33
2019-01-16T17:22:20.440Z,10.67
2019-01-16T17:24:53.589Z,14.20
2019-01-16T17:27:28.479Z,12.53
2019-01-16T17:30:07.355Z,12.97
2019-01-16T17:32:37.409Z,11.57
2019-01-16T17:35:08.665Z,10.63
2019-01-16T17:37:44.890Z,11.97
2019-01-16T17:40:26.550Z,12.50
2019-01-16T17:42:56.585Z,10.43
2019-01-16T17:45:41.744Z,9.93
2019-01-16T17:48:28.173Z,8.70
2019-01-16T17:51:00.984Z,11.67
2019-01-16T17:53:34.157Z,13.60
2019-01-16T17:56:26.434Z,14.63
2019-01-16T17:58:59.381Z,13.47
2019-01-16T18:01:39.359Z,13.30
2019-01-16T18:04:09.384Z,12.13
2019-01-16T18:06:51.615Z,9.83
2019-01-16T18:09:30.620Z,11.27
2019-01-16T18:12:19.546Z,17.90
2019-01-16T18:15:05.803Z,15.80
2019-01-16T18:17:35.821Z,10.90
2019-01-16T18:20:11.513Z,14.67
2019-01-16T18:22:53.289Z,12.13
2019-01-16T18:25:23.574Z,18.50
2019-01-16T18:28:05.762Z,13.13
2019-01-16T18:30:41.136Z,16.17
2019-01-16T18:33:29.281Z,12.87
2019-01-16T18:35:59.335Z,12.80
2019-01-16T18:38:29.349Z,11.33
2019-01-16T18:41:02.457Z,11.33
2019-01-16T18:43:47.457Z,16.43
2019-01-16T18:46:35.817Z,11.57
2019-01-16T18:49:11.747Z,14.17
2019-01-16T18:51:48.112Z,12.43
2019-01-16T18:54:26.129Z,14.30
2019-01-16T18:57:15.176Z,10.23
2019-01-16T18:59:48.810Z,14.10
2019-01-16T19:02:25.001Z,12.37
2019-01-16T19:05:01.190Z,11.97
2019-01-16T19:07:46.562Z,12.70
2019-01-16T19:10:16.656Z,16.20
2019-01-16T19:13:10.814Z,17.80
2019-01-16T19:15:36.712Z,17.30
2019-01-16T19:18:28.565Z,14.93
2019-01-16T19:21:10.613Z,13.03
2019-01-16T19:23:52.705Z,14.30
2019-01-16T19:26:34.656Z,16.90
2019-01-16T19:29:07.674Z,17.00
2019-01-16T19:31:38.080Z,15.97
2019-01-16T19:34:17.257Z,10.30
2019-01-16T19:37:02.238Z,15.43
2019-01-16T19:39:45.063Z,15.90
2019-01-16T19:42:18.800Z,15.17
2019-01-16T19:44:54.958Z,16.60
2019-01-16T19:47:32.329Z,21.47
2019-01-16T19:50:03.910Z,13.90
2019-01-16T19:52:42.922Z,12.47
2019-01-16T19:55:31.711Z,18.23
2019-01-16T19:58:01.733Z,17.13
2019-01-16T20:00:34.767Z,15.77
2019-01-16T20:03:10.997Z,15.93
2019-01-16T20:05:47.260Z,15.33
2019-01-16T20:08:28.741Z,17.60
2019-01-16T20:11:01.919Z,13.67
2019-01-16T20:13:48.125Z,14.20
2019-01-16T20:16:18.406Z,15.00
2019-01-16T20:18:54.585Z,17.87
2019-01-16T20:21:39.834Z,12.60
2019-01-16T20:24:26.185Z,12.20
2019-01-16T20:27:13.341Z,13.70
2019-01-16T20:29:49.034Z,13.03
2019-01-16T20:32:35.778Z,15.53
2019-01-16T20:35:26.048Z,14.27
2019-01-16T20:38:04.454Z,15.43
2019-01-16T20:40:34.493Z,15.50
2019-01-16T20:43:21.611Z,13.73
2019-01-16T20:46:00.866Z,15.83
2019-01-16T20:48:36.951Z,11.77
2019-01-16T20:51:25.238Z,12.93
2019-01-16T20:53:57.949Z,11.63
2019-01-16T20:56:27.977Z,10.30
2019-01-16T20:59:20.175Z,10.20
2019-01-16T21:01:59.493Z,10.90
2019-01-16T21:04:44.497Z,11.53
2019-01-16T21:07:23.194Z,10.80
2019-01-16T21:09:56.230Z,9.57
2019-01-16T21:12:26.249Z,9.73
2019-01-16T21:15:08.638Z,10.50
2019-01-16T21:17:51.128Z,13.80
2019-01-16T21:20:18.674Z,13.57
2019-01-16T21:22:51.905Z,11.80
2019-01-16T21:25:27.338Z,11.53
2019-01-16T21:28:01.677Z,12.90
2019-01-16T21:30:41.542Z,8.57
2019-01-16T21:33:20.257Z,9.67
2019-01-16T21:36:09.730Z,9.60
2019-01-16T21:38:45.397Z,7.87
2019-01-16T21:41:23.856Z,10.37
2019-01-16T21:44:06.106Z,10.33
2019-01-16T21:46:36.137Z,10.30
2019-01-16T21:49:22.340Z,9.03
2019-01-16T21:52:15.074Z,12.83
2019-01-16T21:54:45.153Z,9.37
2019-01-16T21:57:31.734Z,11.03
2019-01-16T22:00:16.865Z,6.97
2019-01-16T22:03:03.906Z,11.13
2019-01-16T22:05:41.204Z,8.87
2019-01-16T22:08:25.634Z,9.67
2019-01-16T22:11:06.858Z,10.27
2019-01-16T22:13:41.974Z,10.57
2019-01-16T22:16:33.014Z,9.37
2019-01-16T22:19:22.267Z,10.17
2019-01-16T22:21:52.351Z,6.93
2019-01-16T22:24:34.657Z,8.33
2019-01-16T22:27:07.312Z,8.07
2019-01-16T22:29:58.680Z,8.30
2019-01-16T22:32:37.405Z,7.03
2019-01-16T22:35:19.645Z,11.17
2019-01-16T22:37:50.532Z,9.60
2019-01-16T22:40:38.232Z,11.10
2019-01-16T22:43:26.396Z,10.63
2019-01-16T22:45:59.188Z,8.13
2019-01-16T22:48:36.332Z,6.57
2019-01-16T22:51:22.290Z,9.57
2019-01-16T22:53:58.161Z,11.77
2019-01-16T22:56:49.412Z,10.83
2019-01-16T22:59:35.967Z,8.67
2019-01-16T23:02:09.720Z,11.27
2019-01-16T23:04:53.849Z,9.17
2019-01-16T23:07:27.197Z,11.10
2019-01-16T23:10:00.243Z,13.90
2019-01-16T23:12:30.422Z,11.40
2019-01-16T23:15:03.132Z,10.57
2019-01-16T23:17:39.393Z,7.10
2019-01-16T23:20:14.510Z,11.77
2019-01-16T23:22:59.711Z,8.87
2019-01-16T23:25:38.283Z,12.97
2019-01-16T23:28:29.312Z,9.47
2019-01-16T23:31:15.786Z,10.10
2019-01-16T23:33:53.465Z,13.03
2019-01-16T23:36:41.202Z,9.57
2019-01-16T23:39:12.540Z,9.00
2019-01-16T23:41:54.349Z,6.80
2019-01-16T23:44:33.725Z,8.73
2019-01-16T23:47:09.690Z,10.83
2019-01-16T23:50:03.789Z,8.30
2019-01-16T23:52:30.977Z,10.63
2019-01-16T23:55:13.326Z,8.37
2019-01-16T23:57:52.282Z,10.43
